sensor_id;sensor_type;location;lat;lon;timestamp;pressure;altitude;pressure_sealevel;temperature;humidity
8294;BME280;4185;41.506;24.938;2023-01-27T00:00:12;92617.44;;;1.68;100.00
8294;BME280;4185;41.506;24.938;2023-01-27T00:02:40;92615.53;;;1.69;100.00
8294;BME280;4185;41.506;24.938;2023-01-27T00:05:09;92610.88;;;1.69;100.00
8294;BME280;4185;41.506;24.938;2023-01-27T00:07:36;92617.75;;;1.70;100.00
8294;BME280;4185;41.506;24.938;2023-01-27T00:10:04;92628.00;;;1.72;100.00
8294;BME280;4185;41.506;24.938;2023-01-27T00:12:33;92634.25;;;1.69;100.00
8294;BME280;4185;41.506;24.938;2023-01-27T00:15:17;92638.31;;;1.55;100.00
8294;BME280;4185;41.506;24.938;2023-01-27T00:17:43;92642.16;;;1.54;100.00
8294;BME280;4185;41.506;24.938;2023-01-27T00:20:11;92640.38;;;1.51;100.00
8294;BME280;4185;41.506;24.938;2023-01-27T00:22:38;92646.16;;;1.59;100.00
8294;BME280;4185;41.506;24.938;2023-01-27T00:25:22;92640.78;;;1.68;100.00
8294;BME280;4185;41.506;24.938;2023-01-27T00:27:50;92636.03;;;1.72;100.00
8294;BME280;4185;41.506;24.938;2023-01-27T00:30:16;92626.63;;;1.76;100.00
8294;BME280;4185;41.506;24.938;2023-01-27T00:32:43;92606.72;;;1.77;100.00
8294;BME280;4185;41.506;24.938;2023-01-27T00:35:27;92586.78;;;1.78;100.00
8294;BME280;4185;41.506;24.938;2023-01-27T00:37:54;92578.16;;;1.74;100.00
8294;BME280;4185;41.506;24.938;2023-01-27T00:40:21;92575.81;;;1.67;100.00
8294;BME280;4185;41.506;24.938;2023-01-27T00:42:49;92572.84;;;1.65;100.00
8294;BME280;4185;41.506;24.938;2023-01-27T00:45:16;92556.22;;;1.61;100.00
8294;BME280;4185;41.506;24.938;2023-01-27T00:48:00;92548.63;;;1.60;100.00
8294;BME280;4185;41.506;24.938;2023-01-27T00:50:27;92561.56;;;1.61;100.00
8294;BME280;4185;41.506;24.938;2023-01-27T00:52:53;92586.84;;;1.60;100.00
8294;BME280;4185;41.506;24.938;2023-01-27T00:55:22;92594.41;;;1.62;100.00
8294;BME280;4185;41.506;24.938;2023-01-27T00:57:50;92589.69;;;1.57;100.00
8294;BME280;4185;41.506;24.938;2023-01-27T01:00:17;92594.56;;;1.58;100.00
8294;BME280;4185;41.506;24.938;2023-01-27T01:02:44;92580.28;;;1.61;100.00
8294;BME280;4185;41.506;24.938;2023-01-27T01:05:10;92575.81;;;1.67;100.00
8294;BME280;4185;41.506;24.938;2023-01-27T01:07:37;92570.59;;;1.73;100.00
8294;BME280;4185;41.506;24.938;2023-01-27T01:10:05;92577.56;;;1.79;100.00
8294;BME280;4185;41.506;24.938;2023-01-27T01:12:32;92579.06;;;1.80;100.00
8294;BME280;4185;41.506;24.938;2023-01-27T01:15:00;92571.03;;;1.80;100.00
8294;BME280;4185;41.506;24.938;2023-01-27T01:17:27;92555.25;;;1.82;100.00
8294;BME280;4185;41.506;24.938;2023-01-27T01:19:53;92555.53;;;1.84;100.00
8294;BME280;4185;41.506;24.938;2023-01-27T01:22:20;92546.31;;;1.85;100.00
8294;BME280;4185;41.506;24.938;2023-01-27T01:24:47;92528.47;;;1.82;100.00
8294;BME280;4185;41.506;24.938;2023-01-27T01:27:14;92530.28;;;1.76;100.00
8294;BME280;4185;41.506;24.938;2023-01-27T01:29:40;92528.81;;;1.75;100.00
8294;BME280;4185;41.506;24.938;2023-01-27T01:32:09;92535.06;;;1.72;100.00
8294;BME280;4185;41.506;24.938;2023-01-27T01:34:35;92552.75;;;1.70;100.00
8294;BME280;4185;41.506;24.938;2023-01-27T01:37:02;92556.31;;;1.76;100.00
8294;BME280;4185;41.506;24.938;2023-01-27T01:39:29;92560.75;;;1.79;100.00
8294;BME280;4185;41.506;24.938;2023-01-27T01:41:56;92549.59;;;1.80;100.00
8294;BME280;4185;41.506;24.938;2023-01-27T01:44:24;92539.03;;;1.86;100.00
8294;BME280;4185;41.506;24.938;2023-01-27T01:46:51;92545.41;;;1.88;100.00
8294;BME280;4185;41.506;24.938;2023-01-27T01:49:21;92553.03;;;1.81;100.00
8294;BME280;4185;41.506;24.938;2023-01-27T01:51:51;92546.34;;;1.76;100.00
8294;BME280;4185;41.506;24.938;2023-01-27T01:54:23;92534.34;;;1.63;100.00
8294;BME280;4185;41.506;24.938;2023-01-27T01:56:52;92533.16;;;1.64;100.00
8294;BME280;4185;41.506;24.938;2023-01-27T01:59:24;92531.81;;;1.68;100.00
8294;BME280;4185;41.506;24.938;2023-01-27T02:01:55;92525.53;;;1.71;100.00
8294;BME280;4185;41.506;24.938;2023-01-27T02:04:26;92519.78;;;1.64;100.00
8294;BME280;4185;41.506;24.938;2023-01-27T02:06:58;92509.25;;;1.51;100.00
8294;BME280;4185;41.506;24.938;2023-01-27T02:09:27;92507.78;;;1.50;100.00
8294;BME280;4185;41.506;24.938;2023-01-27T02:11:56;92505.22;;;1.56;100.00
8294;BME280;4185;41.506;24.938;2023-01-27T02:14:24;92510.00;;;1.52;100.00
8294;BME280;4185;41.506;24.938;2023-01-27T02:16:51;92519.06;;;1.54;100.00
8294;BME280;4185;41.506;24.938;2023-01-27T02:19:23;92498.25;;;1.58;100.00
8294;BME280;4185;41.506;24.938;2023-01-27T02:21:51;92490.50;;;1.60;100.00
8294;BME280;4185;41.506;24.938;2023-01-27T02:24:21;92490.81;;;1.62;100.00
8294;BME280;4185;41.506;24.938;2023-01-27T02:26:51;92504.44;;;1.64;100.00
8294;BME280;4185;41.506;24.938;2023-01-27T02:29:18;92502.53;;;1.65;100.00
8294;BME280;4185;41.506;24.938;2023-01-27T02:31:46;92508.03;;;1.61;100.00
8294;BME280;4185;41.506;24.938;2023-01-27T02:34:15;92514.00;;;1.56;100.00
8294;BME280;4185;41.506;24.938;2023-01-27T02:36:45;92511.91;;;1.60;100.00
8294;BME280;4185;41.506;24.938;2023-01-27T02:39:14;92495.81;;;1.69;100.00
8294;BME280;4185;41.506;24.938;2023-01-27T02:41:44;92484.84;;;1.67;100.00
8294;BME280;4185;41.506;24.938;2023-01-27T02:44:13;92486.13;;;1.72;100.00
8294;BME280;4185;41.506;24.938;2023-01-27T02:46:40;92479.13;;;1.74;100.00
8294;BME280;4185;41.506;24.938;2023-01-27T02:49:06;92478.53;;;1.79;100.00
8294;BME280;4185;41.506;24.938;2023-01-27T02:51:33;92483.69;;;1.83;100.00
8294;BME280;4185;41.506;24.938;2023-01-27T02:54:00;92483.53;;;1.86;100.00
8294;BME280;4185;41.506;24.938;2023-01-27T02:56:27;92481.16;;;1.88;100.00
8294;BME280;4185;41.506;24.938;2023-01-27T02:58:53;92496.91;;;1.86;100.00
8294;BME280;4185;41.506;24.938;2023-01-27T03:01:22;92483.63;;;1.68;100.00
8294;BME280;4185;41.506;24.938;2023-01-27T03:03:49;92483.91;;;1.70;100.00
8294;BME280;4185;41.506;24.938;2023-01-27T03:06:17;92481.38;;;1.76;100.00
8294;BME280;4185;41.506;24.938;2023-01-27T03:08:44;92469.34;;;1.71;100.00
8294;BME280;4185;41.506;24.938;2023-01-27T03:11:11;92475.88;;;1.70;100.00
8294;BME280;4185;41.506;24.938;2023-01-27T03:13:38;92482.09;;;1.76;100.00
8294;BME280;4185;41.506;24.938;2023-01-27T03:16:06;92492.50;;;1.74;100.00
8294;BME280;4185;41.506;24.938;2023-01-27T03:18:51;92505.50;;;1.67;100.00
8294;BME280;4185;41.506;24.938;2023-01-27T03:21:20;92514.31;;;1.58;100.00
8294;BME280;4185;41.506;24.938;2023-01-27T03:23:47;92519.97;;;1.51;100.00
8294;BME280;4185;41.506;24.938;2023-01-27T03:26:14;92530.66;;;1.51;100.00
8294;BME280;4185;41.506;24.938;2023-01-27T03:28:42;92521.16;;;1.50;100.00
8294;BME280;4185;41.506;24.938;2023-01-27T03:31:28;92514.88;;;1.62;100.00
8294;BME280;4185;41.506;24.938;2023-01-27T03:33:57;92504.41;;;1.73;100.00
8294;BME280;4185;41.506;24.938;2023-01-27T03:36:23;92498.75;;;1.80;100.00
8294;BME280;4185;41.506;24.938;2023-01-27T03:39:07;92505.84;;;1.83;100.00
8294;BME280;4185;41.506;24.938;2023-01-27T03:41:51;92498.75;;;1.80;100.00
8294;BME280;4185;41.506;24.938;2023-01-27T03:44:35;92491.91;;;1.79;100.00
8294;BME280;4185;41.506;24.938;2023-01-27T03:47:19;92488.31;;;1.82;100.00
8294;BME280;4185;41.506;24.938;2023-01-27T03:49:47;92477.00;;;1.87;100.00
8294;BME280;4185;41.506;24.938;2023-01-27T03:52:14;92475.31;;;1.90;100.00
8294;BME280;4185;41.506;24.938;2023-01-27T03:54:41;92470.88;;;1.87;100.00
8294;BME280;4185;41.506;24.938;2023-01-27T03:57:08;92473.44;;;1.81;100.00
8294;BME280;4185;41.506;24.938;2023-01-27T03:59:34;92464.41;;;1.79;100.00
8294;BME280;4185;41.506;24.938;2023-01-27T04:02:01;92464.41;;;1.79;100.00
8294;BME280;4185;41.506;24.938;2023-01-27T04:04:47;92459.97;;;1.76;100.00
8294;BME280;4185;41.506;24.938;2023-01-27T04:07:33;92456.06;;;1.77;100.00
8294;BME280;4185;41.506;24.938;2023-01-27T04:10:01;92450.56;;;1.80;100.00
8294;BME280;4185;41.506;24.938;2023-01-27T04:12:28;92451.00;;;1.79;100.00
8294;BME280;4185;41.506;24.938;2023-01-27T04:14:54;92442.25;;;1.78;100.00
8294;BME280;4185;41.506;24.938;2023-01-27T04:17:20;92470.75;;;1.81;100.00
8294;BME280;4185;41.506;24.938;2023-01-27T04:19:48;92464.56;;;1.75;100.00
8294;BME280;4185;41.506;24.938;2023-01-27T04:22:15;92472.31;;;1.73;100.00
8294;BME280;4185;41.506;24.938;2023-01-27T04:24:43;92473.06;;;1.74;100.00
8294;BME280;4185;41.506;24.938;2023-01-27T04:27:11;92476.19;;;1.72;100.00
8294;BME280;4185;41.506;24.938;2023-01-27T04:29:40;92466.19;;;1.73;100.00
8294;BME280;4185;41.506;24.938;2023-01-27T04:32:09;92452.03;;;1.81;100.00
8294;BME280;4185;41.506;24.938;2023-01-27T04:34:37;92455.56;;;1.87;100.00
8294;BME280;4185;41.506;24.938;2023-01-27T04:37:07;92457.03;;;1.88;100.00
8294;BME280;4185;41.506;24.938;2023-01-27T04:39:35;92464.16;;;1.91;100.00
8294;BME280;4185;41.506;24.938;2023-01-27T04:42:02;92456.72;;;1.95;100.00
8294;BME280;4185;41.506;24.938;2023-01-27T04:44:29;92465.31;;;1.99;100.00
8294;BME280;4185;41.506;24.938;2023-01-27T04:46:56;92464.13;;;2.00;100.00
8294;BME280;4185;41.506;24.938;2023-01-27T04:49:22;92462.19;;;2.01;100.00
8294;BME280;4185;41.506;24.938;2023-01-27T04:51:51;92456.72;;;1.95;100.00
8294;BME280;4185;41.506;24.938;2023-01-27T04:54:19;92465.94;;;1.94;100.00
8294;BME280;4185;41.506;24.938;2023-01-27T04:56:55;92467.28;;;1.90;100.00
8294;BME280;4185;41.506;24.938;2023-01-27T04:59:21;92473.28;;;1.85;100.00
8294;BME280;4185;41.506;24.938;2023-01-27T05:01:48;92474.03;;;1.85;100.00
8294;BME280;4185;41.506;24.938;2023-01-27T05:04:16;92484.72;;;1.85;100.00
8294;BME280;4185;41.506;24.938;2023-01-27T05:06:43;92479.09;;;1.83;100.00
8294;BME280;4185;41.506;24.938;2023-01-27T05:09:10;92482.38;;;1.78;100.00
8294;BME280;4185;41.506;24.938;2023-01-27T05:11:38;92478.97;;;1.78;100.00
8294;BME280;4185;41.506;24.938;2023-01-27T05:14:04;92480.63;;;1.75;100.00
8294;BME280;4185;41.506;24.938;2023-01-27T05:16:34;92473.78;;;1.74;100.00
8294;BME280;4185;41.506;24.938;2023-01-27T05:19:00;92474.66;;;1.80;100.00
8294;BME280;4185;41.506;24.938;2023-01-27T05:21:27;92466.75;;;1.86;100.00
8294;BME280;4185;41.506;24.938;2023-01-27T05:23:55;92459.44;;;1.86;100.00
8294;BME280;4185;41.506;24.938;2023-01-27T05:26:24;92454.44;;;1.79;100.00
8294;BME280;4185;41.506;24.938;2023-01-27T05:28:53;92453.09;;;1.75;100.00
8294;BME280;4185;41.506;24.938;2023-01-27T05:31:24;92455.91;;;1.80;100.00
8294;BME280;4185;41.506;24.938;2023-01-27T05:33:52;92457.78;;;1.89;100.00
8294;BME280;4185;41.506;24.938;2023-01-27T05:36:20;92453.28;;;1.95;100.00
8294;BME280;4185;41.506;24.938;2023-01-27T05:38:47;92459.38;;;1.95;100.00
8294;BME280;4185;41.506;24.938;2023-01-27T05:41:15;92457.34;;;1.90;100.00
8294;BME280;4185;41.506;24.938;2023-01-27T05:43:44;92458.81;;;1.91;100.00
8294;BME280;4185;41.506;24.938;2023-01-27T05:46:14;92464.47;;;1.93;100.00
8294;BME280;4185;41.506;24.938;2023-01-27T05:48:42;92459.44;;;1.86;100.00
8294;BME280;4185;41.506;24.938;2023-01-27T05:51:11;92466.44;;;1.84;100.00
8294;BME280;4185;41.506;24.938;2023-01-27T05:53:38;92462.00;;;1.81;100.00
8294;BME280;4185;41.506;24.938;2023-01-27T05:56:06;92454.47;;;1.70;100.00
8294;BME280;4185;41.506;24.938;2023-01-27T05:58:35;92461.19;;;1.66;100.00
8294;BME280;4185;41.506;24.938;2023-01-27T06:01:08;92462.66;;;1.67;100.00
8294;BME280;4185;41.506;24.938;2023-01-27T06:03:37;92461.75;;;1.70;100.00
8294;BME280;4185;41.506;24.938;2023-01-27T06:06:06;92459.66;;;1.74;100.00
8294;BME280;4185;41.506;24.938;2023-01-27T06:08:34;92455.94;;;1.71;100.00
8294;BME280;4185;41.506;24.938;2023-01-27T06:11:01;92456.81;;;1.77;100.00
8294;BME280;4185;41.506;24.938;2023-01-27T06:13:28;92462.19;;;1.77;100.00
8294;BME280;4185;41.506;24.938;2023-01-27T06:15:55;92462.72;;;1.81;100.00
8294;BME280;4185;41.506;24.938;2023-01-27T06:18:23;92456.13;;;1.91;100.00
8294;BME280;4185;41.506;24.938;2023-01-27T06:20:51;92460.44;;;1.98;100.00
8294;BME280;4185;41.506;24.938;2023-01-27T06:23:18;92463.94;;;2.04;100.00
8294;BME280;4185;41.506;24.938;2023-01-27T06:25:46;92466.66;;;1.95;100.00
8294;BME280;4185;41.506;24.938;2023-01-27T06:28:14;92458.38;;;1.93;100.00
8294;BME280;4185;41.506;24.938;2023-01-27T06:30:42;92461.47;;;1.91;100.00
8294;BME280;4185;41.506;24.938;2023-01-27T06:33:09;92470.56;;;1.94;100.00
8294;BME280;4185;41.506;24.938;2023-01-27T06:35:37;92462.47;;;2.03;100.00
8294;BME280;4185;41.506;24.938;2023-01-27T06:38:07;92469.00;;;2.02;100.00
8294;BME280;4185;41.506;24.938;2023-01-27T06:40:35;92464.69;;;2.04;100.00
8294;BME280;4185;41.506;24.938;2023-01-27T06:43:02;92472.16;;;2.00;100.00
8294;BME280;4185;41.506;24.938;2023-01-27T06:45:28;92467.63;;;2.06;100.00
8294;BME280;4185;41.506;24.938;2023-01-27T06:47:56;92465.09;;;2.12;100.00
8294;BME280;4185;41.506;24.938;2023-01-27T06:50:25;92462.22;;;2.15;100.00
8294;BME280;4185;41.506;24.938;2023-01-27T06:52:52;92471.84;;;2.22;100.00
8294;BME280;4185;41.506;24.938;2023-01-27T06:55:25;92469.75;;;2.26;100.00
8294;BME280;4185;41.506;24.938;2023-01-27T06:57:52;92459.22;;;2.22;100.00
8294;BME280;4185;41.506;24.938;2023-01-27T07:00:19;92453.50;;;2.29;100.00
8294;BME280;4185;41.506;24.938;2023-01-27T07:02:46;92464.44;;;2.40;100.00
8294;BME280;4185;41.506;24.938;2023-01-27T07:05:14;92459.66;;;2.44;100.00
8294;BME280;4185;41.506;24.938;2023-01-27T07:07:41;92441.88;;;2.32;100.00
8294;BME280;4185;41.506;24.938;2023-01-27T07:10:09;92465.94;;;2.41;100.00
8294;BME280;4185;41.506;24.938;2023-01-27T07:12:37;92467.75;;;2.35;100.00
8294;BME280;4185;41.506;24.938;2023-01-27T07:15:06;92478.25;;;2.24;100.00
8294;BME280;4185;41.506;24.938;2023-01-27T07:17:34;92465.84;;;2.12;100.00
8294;BME280;4185;41.506;24.938;2023-01-27T07:20:01;92473.41;;;2.14;100.00
8294;BME280;4185;41.506;24.938;2023-01-27T07:22:28;92470.69;;;2.23;100.00
8294;BME280;4185;41.506;24.938;2023-01-27T07:24:55;92475.22;;;2.31;100.00
8294;BME280;4185;41.506;24.938;2023-01-27T07:27:22;92467.56;;;2.39;100.00
8294;BME280;4185;41.506;24.938;2023-01-27T07:29:51;92463.31;;;2.32;100.00
8294;BME280;4185;41.506;24.938;2023-01-27T07:32:17;92460.91;;;2.34;100.00
8294;BME280;4185;41.506;24.938;2023-01-27T07:34:44;92462.63;;;2.46;100.00
8294;BME280;4185;41.506;24.938;2023-01-27T07:37:11;92458.19;;;2.58;100.00
8294;BME280;4185;41.506;24.938;2023-01-27T07:39:38;92453.19;;;2.66;100.00
8294;BME280;4185;41.506;24.938;2023-01-27T07:42:07;92449.16;;;2.70;100.00
8294;BME280;4185;41.506;24.938;2023-01-27T07:44:33;92455.53;;;2.73;100.00
8294;BME280;4185;41.506;24.938;2023-01-27T07:47:02;92455.63;;;2.64;100.00
8294;BME280;4185;41.506;24.938;2023-01-27T07:49:29;92447.41;;;2.67;100.00
8294;BME280;4185;41.506;24.938;2023-01-27T07:51:56;92449.88;;;2.71;100.00
8294;BME280;4185;41.506;24.938;2023-01-27T07:54:23;92452.56;;;2.71;100.00
8294;BME280;4185;41.506;24.938;2023-01-27T07:56:50;92446.00;;;2.72;100.00
8294;BME280;4185;41.506;24.938;2023-01-27T07:59:17;92454.06;;;2.72;100.00
8294;BME280;4185;41.506;24.938;2023-01-27T08:01:44;92449.69;;;2.74;100.00
8294;BME280;4185;41.506;24.938;2023-01-27T08:04:12;92452.19;;;2.78;100.00
8294;BME280;4185;41.506;24.938;2023-01-27T08:06:39;92452.03;;;2.81;100.00
8294;BME280;4185;41.506;24.938;2023-01-27T08:09:06;92439.38;;;2.82;100.00
8294;BME280;4185;41.506;24.938;2023-01-27T08:11:32;92438.16;;;2.83;100.00
8294;BME280;4185;41.506;24.938;2023-01-27T08:13:59;92450.63;;;2.71;100.00
8294;BME280;4185;41.506;24.938;2023-01-27T08:16:26;92447.59;;;2.64;100.00
8294;BME280;4185;41.506;24.938;2023-01-27T08:18:53;92445.44;;;2.68;100.00
8294;BME280;4185;41.506;24.938;2023-01-27T08:21:22;92442.88;;;2.73;100.00
8294;BME280;4185;41.506;24.938;2023-01-27T08:23:49;92447.19;;;2.71;100.00
8294;BME280;4185;41.506;24.938;2023-01-27T08:26:16;92442.31;;;2.69;100.00
8294;BME280;4185;41.506;24.938;2023-01-27T08:28:43;92444.50;;;2.71;100.00
8294;BME280;4185;41.506;24.938;2023-01-27T08:31:12;92448.06;;;2.77;100.00
8294;BME280;4185;41.506;24.938;2023-01-27T08:33:40;92445.38;;;2.77;100.00
8294;BME280;4185;41.506;24.938;2023-01-27T08:36:08;92441.28;;;2.81;100.00
8294;BME280;4185;41.506;24.938;2023-01-27T08:38:37;92441.41;;;2.87;100.00
8294;BME280;4185;41.506;24.938;2023-01-27T08:41:06;92445.84;;;2.90;100.00
8294;BME280;4185;41.506;24.938;2023-01-27T08:43:33;92452.06;;;2.96;100.00
8294;BME280;4185;41.506;24.938;2023-01-27T08:46:00;92451.59;;;2.97;100.00
8294;BME280;4185;41.506;24.938;2023-01-27T08:48:28;92440.66;;;3.01;100.00
8294;BME280;4185;41.506;24.938;2023-01-27T08:50:56;92451.94;;;3.05;100.00
8294;BME280;4185;41.506;24.938;2023-01-27T08:53:24;92446.75;;;3.01;100.00
8294;BME280;4185;41.506;24.938;2023-01-27T08:55:55;92442.50;;;2.95;100.00
8294;BME280;4185;41.506;24.938;2023-01-27T08:58:22;92444.81;;;3.02;100.00
8294;BME280;4185;41.506;24.938;2023-01-27T09:00:49;92428.09;;;3.07;100.00
8294;BME280;4185;41.506;24.938;2023-01-27T09:03:16;92442.88;;;3.17;100.00
8294;BME280;4185;41.506;24.938;2023-01-27T09:05:43;92438.44;;;3.14;100.00
8294;BME280;4185;41.506;24.938;2023-01-27T09:08:10;92436.78;;;3.02;100.00
8294;BME280;4185;41.506;24.938;2023-01-27T09:10:37;92435.31;;;3.01;100.00
8294;BME280;4185;41.506;24.938;2023-01-27T09:13:06;92429.38;;;2.97;100.00
8294;BME280;4185;41.506;24.938;2023-01-27T09:15:33;92444.72;;;2.96;100.00
8294;BME280;4185;41.506;24.938;2023-01-27T09:18:00;92446.41;;;2.94;100.00
8294;BME280;4185;41.506;24.938;2023-01-27T09:20:27;92441.22;;;2.90;100.00
8294;BME280;4185;41.506;24.938;2023-01-27T09:22:54;92431.25;;;2.91;100.00
8294;BME280;4185;41.506;24.938;2023-01-27T09:25:22;92437.72;;;2.99;100.00
8294;BME280;4185;41.506;24.938;2023-01-27T09:27:52;92448.59;;;3.10;100.00
8294;BME280;4185;41.506;24.938;2023-01-27T09:30:22;92447.06;;;3.18;100.00
8294;BME280;4185;41.506;24.938;2023-01-27T09:32:49;92442.59;;;3.15;100.00
8294;BME280;4185;41.506;24.938;2023-01-27T09:35:16;92438.59;;;3.25;100.00
8294;BME280;4185;41.506;24.938;2023-01-27T09:37:46;92437.84;;;3.39;100.00
8294;BME280;4185;41.506;24.938;2023-01-27T09:40:23;92423.53;;;3.62;100.00
8294;BME280;4185;41.506;24.938;2023-01-27T09:43:13;92418.09;;;3.91;98.58
8294;BME280;4185;41.506;24.938;2023-01-27T09:46:07;92413.88;;;4.25;97.15
8294;BME280;4185;41.506;24.938;2023-01-27T09:48:46;92418.09;;;4.51;95.29
8294;BME280;4185;41.506;24.938;2023-01-27T09:51:23;92414.56;;;4.65;94.49
8294;BME280;4185;41.506;24.938;2023-01-27T09:54:07;92409.59;;;4.58;93.72
8294;BME280;4185;41.506;24.938;2023-01-27T09:56:45;92415.94;;;4.35;94.92
8294;BME280;4185;41.506;24.938;2023-01-27T09:59:32;92415.09;;;4.24;95.55
8294;BME280;4185;41.506;24.938;2023-01-27T10:02:10;92415.34;;;4.26;96.51
8294;BME280;4185;41.506;24.938;2023-01-27T10:08:04;92392.31;;;4.39;96.48
8294;BME280;4185;41.506;24.938;2023-01-27T10:10:51;92398.19;;;4.43;95.75
8294;BME280;4185;41.506;24.938;2023-01-27T10:13:31;92396.72;;;4.42;96.31
8294;BME280;4185;41.506;24.938;2023-01-27T10:16:14;92398.31;;;4.54;96.09
8294;BME280;4185;41.506;24.938;2023-01-27T10:19:00;92395.69;;;4.60;95.50
8294;BME280;4185;41.506;24.938;2023-01-27T10:21:36;92394.13;;;4.73;94.54
8294;BME280;4185;41.506;24.938;2023-01-27T10:24:12;92388.56;;;4.82;94.13
8294;BME280;4185;41.506;24.938;2023-01-27T10:26:49;92388.06;;;4.78;93.77
8294;BME280;4185;41.506;24.938;2023-01-27T10:29:21;92383.59;;;4.75;93.68
8294;BME280;4185;41.506;24.938;2023-01-27T10:31:55;92378.00;;;4.73;93.25
8294;BME280;4185;41.506;24.938;2023-01-27T10:34:27;92380.06;;;4.64;93.55
8294;BME280;4185;41.506;24.938;2023-01-27T10:37:02;92377.88;;;4.62;94.13
8294;BME280;4185;41.506;24.938;2023-01-27T10:39:37;92374.91;;;4.60;93.74
8294;BME280;4185;41.506;24.938;2023-01-27T10:42:16;92369.25;;;4.58;94.27
8294;BME280;4185;41.506;24.938;2023-01-27T10:45:00;92370.41;;;4.52;95.36
8294;BME280;4185;41.506;24.938;2023-01-27T10:47:39;92375.28;;;4.48;95.80
8294;BME280;4185;41.506;24.938;2023-01-27T10:50:13;92366.94;;;4.46;95.78
8294;BME280;4185;41.506;24.938;2023-01-27T10:52:44;92359.63;;;4.46;96.32
8294;BME280;4185;41.506;24.938;2023-01-27T10:55:17;92366.06;;;4.54;95.63
8294;BME280;4185;41.506;24.938;2023-01-27T10:57:49;92360.25;;;4.61;95.25
8294;BME280;4185;41.506;24.938;2023-01-27T11:00:27;92361.72;;;4.62;95.36
8294;BME280;4185;41.506;24.938;2023-01-27T11:02:59;92363.44;;;4.60;94.41
8294;BME280;4185;41.506;24.938;2023-01-27T11:05:35;92363.19;;;4.63;94.92
8294;BME280;4185;41.506;24.938;2023-01-27T11:08:06;92357.41;;;4.70;94.27
8294;BME280;4185;41.506;24.938;2023-01-27T11:10:38;92369.03;;;4.82;94.19
8294;BME280;4185;41.506;24.938;2023-01-27T11:13:30;92346.13;;;4.92;93.86
8294;BME280;4185;41.506;24.938;2023-01-27T11:15:57;92343.22;;;5.01;93.43
8294;BME280;4185;41.506;24.938;2023-01-27T11:18:26;92323.00;;;5.11;93.54
8294;BME280;4185;41.506;24.938;2023-01-27T11:20:58;92328.91;;;5.15;92.51
8294;BME280;4185;41.506;24.938;2023-01-27T11:23:29;92329.84;;;5.07;92.41
8294;BME280;4185;41.506;24.938;2023-01-27T11:26:01;92324.59;;;4.92;93.19
8294;BME280;4185;41.506;24.938;2023-01-27T11:28:39;92321.59;;;4.84;93.85
8294;BME280;4185;41.506;24.938;2023-01-27T11:31:25;92316.47;;;4.86;93.56
8294;BME280;4185;41.506;24.938;2023-01-27T11:33:57;92302.53;;;4.88;93.45
8294;BME280;4185;41.506;24.938;2023-01-27T11:36:29;92316.03;;;4.93;92.93
8294;BME280;4185;41.506;24.938;2023-01-27T11:38:56;92314.88;;;5.00;92.95
8294;BME280;4185;41.506;24.938;2023-01-27T11:41:24;92319.06;;;5.07;92.89
8294;BME280;4185;41.506;24.938;2023-01-27T11:43:50;92312.72;;;5.10;93.28
8294;BME280;4185;41.506;24.938;2023-01-27T11:46:21;92313.69;;;5.07;93.43
8294;BME280;4185;41.506;24.938;2023-01-27T11:48:50;92314.44;;;5.07;93.37
8294;BME280;4185;41.506;24.938;2023-01-27T11:51:22;92314.91;;;5.06;92.95
8294;BME280;4185;41.506;24.938;2023-01-27T11:53:57;92312.91;;;5.01;93.38
8294;BME280;4185;41.506;24.938;2023-01-27T11:56:26;92310.66;;;4.93;93.12
8294;BME280;4185;41.506;24.938;2023-01-27T11:58:58;92307.28;;;4.98;93.85
8294;BME280;4185;41.506;24.938;2023-01-27T12:01:37;92307.78;;;5.03;94.26
8294;BME280;4185;41.506;24.938;2023-01-27T12:04:11;92300.22;;;5.07;94.83
8294;BME280;4185;41.506;24.938;2023-01-27T12:06:43;92301.97;;;5.10;94.18
8294;BME280;4185;41.506;24.938;2023-01-27T12:09:30;92300.28;;;5.12;93.78
8294;BME280;4185;41.506;24.938;2023-01-27T12:12:25;92287.31;;;5.11;93.13
8294;BME280;4185;41.506;24.938;2023-01-27T12:14:53;92289.41;;;5.01;94.39
8294;BME280;4185;41.506;24.938;2023-01-27T12:17:33;92295.66;;;4.81;95.03
8294;BME280;4185;41.506;24.938;2023-01-27T12:20:06;92293.13;;;4.72;95.80
8294;BME280;4185;41.506;24.938;2023-01-27T12:22:46;92282.38;;;4.72;96.76
8294;BME280;4185;41.506;24.938;2023-01-27T12:25:19;92280.38;;;4.67;97.32
8294;BME280;4185;41.506;24.938;2023-01-27T12:40:39;92286.06;;;5.12;95.93
8294;BME280;4185;41.506;24.938;2023-01-27T12:43:10;92288.06;;;5.17;95.49
8294;BME280;4185;41.506;24.938;2023-01-27T12:45:38;92273.63;;;5.20;94.96
8294;BME280;4185;41.506;24.938;2023-01-27T12:48:19;92286.63;;;5.21;95.22
8294;BME280;4185;41.506;24.938;2023-01-27T12:51:02;92274.88;;;5.19;95.62
8294;BME280;4185;41.506;24.938;2023-01-27T12:53:30;92270.69;;;5.18;95.51
8294;BME280;4185;41.506;24.938;2023-01-27T12:56:02;92271.66;;;5.15;95.21
8294;BME280;4185;41.506;24.938;2023-01-27T12:58:33;92272.63;;;5.12;94.91
8294;BME280;4185;41.506;24.938;2023-01-27T13:01:03;92275.47;;;5.03;95.11
8294;BME280;4185;41.506;24.938;2023-01-27T13:03:31;92275.69;;;4.99;96.68
8294;BME280;4185;41.506;24.938;2023-01-27T13:06:04;92264.34;;;4.78;97.36
8294;BME280;4185;41.506;24.938;2023-01-27T13:08:32;92272.84;;;4.77;98.31
8294;BME280;4185;41.506;24.938;2023-01-27T13:11:02;92272.28;;;4.67;98.68
8294;BME280;4185;41.506;24.938;2023-01-27T13:13:29;92275.84;;;4.53;99.28
8294;BME280;4185;41.506;24.938;2023-01-27T13:16:05;92285.63;;;4.51;100.00
8294;BME280;4185;41.506;24.938;2023-01-27T13:18:35;92281.88;;;4.43;100.00
8294;BME280;4185;41.506;24.938;2023-01-27T13:21:09;92283.81;;;4.42;100.00
8294;BME280;4185;41.506;24.938;2023-01-27T13:23:39;92287.00;;;4.41;100.00
8294;BME280;4185;41.506;24.938;2023-01-27T13:26:13;92291.19;;;4.47;100.00
8294;BME280;4185;41.506;24.938;2023-01-27T13:28:45;92290.25;;;4.50;100.00
8294;BME280;4185;41.506;24.938;2023-01-27T13:31:21;92287.28;;;4.48;100.00
8294;BME280;4185;41.506;24.938;2023-01-27T13:33:50;92288.03;;;4.49;100.00
8294;BME280;4185;41.506;24.938;2023-01-27T13:36:26;92285.50;;;4.40;100.00
8294;BME280;4185;41.506;24.938;2023-01-27T13:38:59;92289.19;;;4.42;100.00
8294;BME280;4185;41.506;24.938;2023-01-27T13:41:35;92279.81;;;4.32;100.00
8294;BME280;4185;41.506;24.938;2023-01-27T13:44:13;92298.38;;;4.30;100.00